Aviation Digital Data Service (ADDS)

Output produced by METARs form (0733 UTC 01 September 2014)
found at http://aviationweather.gov/adds/metars/
 
KIAH 010529Z 0106/0212 11005KT P6SM SCT160 BKN250 
     TEMPO 0109/0113 MIFG 
     FM011500 16009KT P6SM BKN035 
     FM011700 16010KT P6SM VCSH BKN050 
     PROB30 0119/0122 SHRA OVC040 
     FM012300 14008KT P6SM FEW050 SCT250 
     FM021000 16004KT P6SM BKN022 BKN250